Weather at Ringebu Airfield Frya

Public forecast

Using degrees Celsius for public forecast. Weather courtesy of forecast.io.

Closest aviation weather report (METAR) to Ringebu Airfield Frya

Closest report is Røros Airport, 71.7 nm (132.8 km) NNE.

2024/05/30 02:20 (retrieved 33 minutes ago)

ENRO 300220Z AUTO VRB02KT 9999 NCD 03/03 Q1010

Closest aviation forecast (TAF) to Ringebu Airfield Frya

Forecast is more than 12 hours old.

Closest forecast is Quaqtaq Airport, 2,152.0 nm (3,985.5 km) NW.

2024/05/29 14:00 (retrieved 13 hours ago)

TAF CYHA 291340Z 2914/2921 28007KT P6SM BKN030 TEMPO 2914/2918 BKN020 BECMG 2916/2918 18008KT RMK NXT FCST BY 301400Z